Pagina principale
METAR-TAF:

METAR-TAF

Aeroporti :

San Gallo, Svizzera

latitudine: 47-29-06N, longitudine: 009-33-43E, altezza: 398 m

Osservazione

Il bollettino è stato emesso 33 minuti fa, alle 12:20 UTC
Vento 3 kt da direzioni variabili
Temperature 4°C
Umidità 87%
Pressione 1017 hPa
Visibilità 10 km o più
Nuvoloso ad un'altezza di 1200 ft

METAR: LSZR 061220Z VRB03KT 9999 BKN012 04/02 Q1017 RMK F

Ora: 13:53 (12:53 UTC)

Previsione

Il bollettino è stato emesso 1 ora e 28 minuti fa, alle 11:25 UTC
Previsione valida dal 06 alle 12 UTC al 06 alle 21 UTC
Vento 1 kt da direzioni variabili
Visibilità 10 km o più
Nuvoloso ad un'altezza di 700 ft
Evoluzione graduale
dal 06 alle 12 UTC al 06 alle 15 UTC
Nuvoloso ad un'altezza di 1000 ft
Temporaneamente
dal 06 alle 14 UTC al 06 alle 21 UTC
Nubi sparse ad un'altezza di 1000 ft

TAF: LSZR 061125Z 0612/0621 VRB01KT 9999 BKN007 BECMG 0612/0615 BKN010 TEMPO 0614/0621 SCT010

Osservazioni e previsioni meteorologiche di più di 4000 aeroporti (messaggi METAR e TAF).

Le stazioni disponibili sono rappresentate dai dischi gialli e rossi sulla carta.

Puntare il mouse per vedere il nome della stazione.

Clicca sopra per visualizzare le osservazioni e previsioni meteorologiche.

Per cambiare la mappa : fare clic sui pulsanti verdi con una croce nera per ingrandire, il pulsante verde con un trattino per diminuire, o sulla freccia verde per le mappe adiacenti.


METAR-TAF: